Skip Navigation LinksHome page > Weather > Current weather Skip Navigation Links

Current Weather

Jakutsk, Russia

For information only: do not use for flight planning or navigation.
Latest weather
Observation time Saturday, October 25, 2014 8:30 AM JST
Local time Saturday, October 25, 2014 8:49 AM JST
Flight conditions Instrument Meteorological Conditions
Winds
Wind direction West (270°)
Wind speed 2 mph
Visibility 1.5 mi.
Present weather mist
Sky condition
Ceiling unlimited
Cloud layer few clouds 500 ft.
Temperature -15°F
Dewpoint -20°F
Altimeter 30.21 in.Hg
Precipitation
QF 8:38 PM
Derived measurements
Relative humidity 76%
Wind chill -15°F
Density altitude -5315 ft.
Remarks
No significant changes expected in the next two hours.
METAR UEEE 242330Z 27001MPS 2400 BR FEW005 M26/M29 Q1023 NOSIG RMK QFE758 23490150

Settings

Location code

InnerDrive.Weather 4.0.5399.0 Release CLR 4.0.30319.34014
Copyright ©2014 Inner Drive Technology. All rights reserved. Portions Copyright ©1986-2014 David Braverman.

Find weather

Site navigation


Skip Navigation Links

Place info

Page info

PayPal - The safer, easier way to pay online!

Return home.

Copyright ©2014 Inner Drive Technology. Purveyors of fine, hand-crafted computer software. Page printed 2014-10-24T23:49:31 UTC.